Terminal Aerodrome Forecast
Issued by NWS Mt. Holly, NJ

Home | Current Version | Previous Version | Text Only | Print | Product List | Glossary On
Versions: 1 2 3 4 5 6 7 8 9 10 11 12 13 14 15 16 17 18 19 20 21 22 23 24 25 26 27
000
FTUS41 KPHI 171912 AAA
TAFACY
TAF AMD
KACY 171912Z 1719/1818 14008KT P6SM -SHRA OVC008
     FM172200 14006KT 2SM -SHRA BR OVC005
     FM180000 22004KT 1SM -DZ BR OVC003
     FM181200 31006KT 3SM BR BKN005 OVC015
     FM181500 32010KT P6SM BKN015
     FM181700 32010G18KT P6SM BKN035=

USA.gov is the U.S. government's official web portal to all federal, state and local government web resources and services.